Terminal Aerodrome Forecast
Issued by NWS Wichita, KS

Home | Current Version | Previous Version | Text Only | Print | Product List | Glossary Off
Versions: 1 2 3 4 5 6 7 8 9 10 11 12 13 14 15 16 17 18 19 20

000
FTUS43 KICT 170500
TAFICT
TAF
KICT 170522Z 1706/1806 02013KT P6SM OVC100
     FM171000 04011KT P6SM VCSH OVC080
      TEMPO 1714/1718 6SM -RA OVC040
     FM172300 09006KT P6SM BKN040=

USA.gov is the U.S. government's official web portal to all federal, state and local government web resources and services.